sensor_id;sensor_type;location;lat;lon;timestamp;P1;durP1;ratioP1;P2;durP2;ratioP2
66856;SDS011;53766;50.280;19.160;2023-02-21T15:57:22;2.20;;;1.35;;
66856;SDS011;53766;50.280;19.160;2023-02-21T16:00:15;2.30;;;1.40;;
66856;SDS011;53766;50.280;19.160;2023-02-21T16:02:46;2.97;;;1.20;;
66856;SDS011;53766;50.280;19.160;2023-02-21T16:05:26;2.92;;;1.38;;
66856;SDS011;53766;50.280;19.160;2023-02-21T16:07:59;2.53;;;1.23;;
66856;SDS011;53766;50.280;19.160;2023-02-21T16:10:27;4.72;;;1.33;;
66856;SDS011;53766;50.280;19.160;2023-02-21T16:12:55;2.28;;;1.30;;
66856;SDS011;53766;50.280;19.160;2023-02-21T16:15:28;2.35;;;1.40;;
66856;SDS011;53766;50.280;19.160;2023-02-21T16:17:59;2.20;;;1.15;;
66856;SDS011;53766;50.280;19.160;2023-02-21T16:20:30;2.40;;;1.45;;
66856;SDS011;53766;50.280;19.160;2023-02-21T16:23:25;2.78;;;1.15;;
66856;SDS011;53766;50.280;19.160;2023-02-21T16:28:41;3.88;;;1.35;;
66856;SDS011;53766;50.280;19.160;2023-02-21T16:31:23;2.17;;;1.35;;
66856;SDS011;53766;50.280;19.160;2023-02-21T16:33:56;5.22;;;1.42;;
66856;SDS011;53766;50.280;19.160;2023-02-21T16:36:25;2.00;;;1.23;;
66856;SDS011;53766;50.280;19.160;2023-02-21T16:38:54;2.45;;;1.25;;
66856;SDS011;53766;50.280;19.160;2023-02-21T16:41:23;2.85;;;1.60;;
66856;SDS011;53766;50.280;19.160;2023-02-21T16:43:51;4.15;;;1.20;;
66856;SDS011;53766;50.280;19.160;2023-02-21T16:46:22;3.42;;;1.50;;
66856;SDS011;53766;50.280;19.160;2023-02-21T16:48:55;3.22;;;1.42;;
66856;SDS011;53766;50.280;19.160;2023-02-21T16:51:23;3.58;;;1.60;;
66856;SDS011;53766;50.280;19.160;2023-02-21T16:53:50;2.72;;;1.40;;
66856;SDS011;53766;50.280;19.160;2023-02-21T16:56:18;2.80;;;1.65;;
66856;SDS011;53766;50.280;19.160;2023-02-21T16:58:46;3.50;;;1.60;;
66856;SDS011;53766;50.280;19.160;2023-02-21T17:01:19;3.35;;;1.60;;
66856;SDS011;53766;50.280;19.160;2023-02-21T17:03:53;3.20;;;1.67;;
66856;SDS011;53766;50.280;19.160;2023-02-21T17:06:23;3.63;;;1.52;;
66856;SDS011;53766;50.280;19.160;2023-02-21T17:08:51;8.60;;;1.77;;
66856;SDS011;53766;50.280;19.160;2023-02-21T17:11:19;2.63;;;1.42;;
66856;SDS011;53766;50.280;19.160;2023-02-21T17:13:46;4.78;;;1.50;;
66856;SDS011;53766;50.280;19.160;2023-02-21T17:16:14;2.55;;;1.38;;
66856;SDS011;53766;50.280;19.160;2023-02-21T17:18:42;3.33;;;1.60;;
66856;SDS011;53766;50.280;19.160;2023-02-21T17:21:11;2.20;;;1.40;;
66856;SDS011;53766;50.280;19.160;2023-02-21T17:23:38;2.92;;;1.42;;
66856;SDS011;53766;50.280;19.160;2023-02-21T17:26:07;2.35;;;1.48;;
66856;SDS011;53766;50.280;19.160;2023-02-21T17:28:34;3.65;;;1.77;;
66856;SDS011;53766;50.280;19.160;2023-02-21T17:31:05;2.33;;;1.38;;
66856;SDS011;53766;50.280;19.160;2023-02-21T17:33:32;3.53;;;1.60;;
66856;SDS011;53766;50.280;19.160;2023-02-21T17:36:02;5.20;;;1.63;;
66856;SDS011;53766;50.280;19.160;2023-02-21T17:38:29;3.25;;;1.65;;
66856;SDS011;53766;50.280;19.160;2023-02-21T17:40:57;2.55;;;1.42;;
66856;SDS011;53766;50.280;19.160;2023-02-21T17:43:25;3.72;;;1.63;;
66856;SDS011;53766;50.280;19.160;2023-02-21T17:45:52;2.22;;;1.50;;
66856;SDS011;53766;50.280;19.160;2023-02-21T17:48:20;3.17;;;1.73;;
66856;SDS011;53766;50.280;19.160;2023-02-21T17:50:49;2.72;;;1.50;;
66856;SDS011;53766;50.280;19.160;2023-02-21T17:53:16;3.22;;;1.60;;
66856;SDS011;53766;50.280;19.160;2023-02-21T17:55:43;2.85;;;1.50;;
66856;SDS011;53766;50.280;19.160;2023-02-21T17:58:11;2.05;;;1.50;;
66856;SDS011;53766;50.280;19.160;2023-02-21T18:00:38;3.15;;;1.50;;
66856;SDS011;53766;50.280;19.160;2023-02-21T18:03:05;2.80;;;1.65;;
66856;SDS011;53766;50.280;19.160;2023-02-21T18:05:35;3.22;;;1.63;;
66856;SDS011;53766;50.280;19.160;2023-02-21T18:08:03;5.90;;;1.63;;
66856;SDS011;53766;50.280;19.160;2023-02-21T18:10:31;2.45;;;1.60;;
66856;SDS011;53766;50.280;19.160;2023-02-21T18:12:58;5.57;;;1.83;;
66856;SDS011;53766;50.280;19.160;2023-02-21T18:15:26;3.55;;;1.60;;
66856;SDS011;53766;50.280;19.160;2023-02-21T18:17:55;2.95;;;1.88;;
66856;SDS011;53766;50.280;19.160;2023-02-21T18:20:23;3.35;;;1.50;;
66856;SDS011;53766;50.280;19.160;2023-02-21T18:22:50;2.58;;;1.77;;
66856;SDS011;53766;50.280;19.160;2023-02-21T18:25:18;3.92;;;1.80;;
66856;SDS011;53766;50.280;19.160;2023-02-21T18:27:47;4.63;;;1.80;;
66856;SDS011;53766;50.280;19.160;2023-02-21T18:30:16;3.67;;;2.00;;
66856;SDS011;53766;50.280;19.160;2023-02-21T18:32:44;4.82;;;1.70;;
66856;SDS011;53766;50.280;19.160;2023-02-21T18:35:13;5.63;;;1.90;;
66856;SDS011;53766;50.280;19.160;2023-02-21T18:37:42;3.72;;;1.83;;
66856;SDS011;53766;50.280;19.160;2023-02-21T18:40:16;6.57;;;2.15;;
66856;SDS011;53766;50.280;19.160;2023-02-21T18:42:44;5.88;;;2.17;;
66856;SDS011;53766;50.280;19.160;2023-02-21T18:45:13;6.57;;;2.10;;
66856;SDS011;53766;50.280;19.160;2023-02-21T18:47:41;5.95;;;2.00;;
66856;SDS011;53766;50.280;19.160;2023-02-21T18:50:09;5.78;;;2.35;;
66856;SDS011;53766;50.280;19.160;2023-02-21T18:52:37;5.53;;;2.33;;
66856;SDS011;53766;50.280;19.160;2023-02-21T18:55:05;4.03;;;2.15;;
66856;SDS011;53766;50.280;19.160;2023-02-21T18:57:33;6.57;;;2.30;;
66856;SDS011;53766;50.280;19.160;2023-02-21T19:00:03;4.38;;;2.10;;
66856;SDS011;53766;50.280;19.160;2023-02-21T19:02:32;5.60;;;2.10;;
66856;SDS011;53766;50.280;19.160;2023-02-21T19:05:01;7.60;;;2.50;;
66856;SDS011;53766;50.280;19.160;2023-02-21T19:07:28;6.80;;;2.50;;
66856;SDS011;53766;50.280;19.160;2023-02-21T19:09:58;5.32;;;2.40;;
66856;SDS011;53766;50.280;19.160;2023-02-21T19:12:25;5.57;;;2.20;;
66856;SDS011;53766;50.280;19.160;2023-02-21T19:14:52;6.55;;;2.22;;
66856;SDS011;53766;50.280;19.160;2023-02-21T19:17:20;10.88;;;2.75;;
66856;SDS011;53766;50.280;19.160;2023-02-21T19:19:47;7.07;;;2.20;;
66856;SDS011;53766;50.280;19.160;2023-02-21T19:22:15;6.03;;;2.42;;
66856;SDS011;53766;50.280;19.160;2023-02-21T19:24:42;9.35;;;3.00;;
66856;SDS011;53766;50.280;19.160;2023-02-21T19:27:10;7.35;;;3.00;;
66856;SDS011;53766;50.280;19.160;2023-02-21T19:29:37;4.68;;;2.60;;
66856;SDS011;53766;50.280;19.160;2023-02-21T19:32:04;7.03;;;2.83;;
66856;SDS011;53766;50.280;19.160;2023-02-21T19:34:32;5.57;;;2.50;;
66856;SDS011;53766;50.280;19.160;2023-02-21T19:37:00;4.57;;;2.17;;
66856;SDS011;53766;50.280;19.160;2023-02-21T19:39:28;7.00;;;2.50;;
66856;SDS011;53766;50.280;19.160;2023-02-21T19:41:55;5.55;;;2.40;;
66856;SDS011;53766;50.280;19.160;2023-02-21T19:44:23;5.55;;;2.50;;
66856;SDS011;53766;50.280;19.160;2023-02-21T19:46:50;5.72;;;2.58;;
66856;SDS011;53766;50.280;19.160;2023-02-21T19:49:18;6.45;;;2.60;;
66856;SDS011;53766;50.280;19.160;2023-02-21T19:51:47;8.57;;;2.75;;
66856;SDS011;53766;50.280;19.160;2023-02-21T19:54:19;6.30;;;2.80;;
66856;SDS011;53766;50.280;19.160;2023-02-21T19:56:50;6.75;;;2.60;;
66856;SDS011;53766;50.280;19.160;2023-02-21T19:59:17;9.32;;;2.95;;
66856;SDS011;53766;50.280;19.160;2023-02-21T20:01:46;8.65;;;2.67;;
66856;SDS011;53766;50.280;19.160;2023-02-21T20:04:14;6.03;;;2.60;;
66856;SDS011;53766;50.280;19.160;2023-02-21T20:06:45;7.30;;;2.72;;
66856;SDS011;53766;50.280;19.160;2023-02-21T20:09:14;7.45;;;3.00;;
66856;SDS011;53766;50.280;19.160;2023-02-21T20:11:44;6.35;;;2.95;;
66856;SDS011;53766;50.280;19.160;2023-02-21T20:14:13;8.70;;;2.75;;
66856;SDS011;53766;50.280;19.160;2023-02-21T20:16:44;6.88;;;3.00;;
66856;SDS011;53766;50.280;19.160;2023-02-21T20:19:12;10.88;;;3.35;;
66856;SDS011;53766;50.280;19.160;2023-02-21T20:21:41;11.23;;;3.40;;
66856;SDS011;53766;50.280;19.160;2023-02-21T20:24:13;11.38;;;3.13;;
66856;SDS011;53766;50.280;19.160;2023-02-21T20:26:40;9.13;;;3.08;;
66856;SDS011;53766;50.280;19.160;2023-02-21T20:29:08;7.00;;;3.03;;
66856;SDS011;53766;50.280;19.160;2023-02-21T20:31:36;8.02;;;3.17;;
66856;SDS011;53766;50.280;19.160;2023-02-21T20:34:05;7.70;;;3.20;;
66856;SDS011;53766;50.280;19.160;2023-02-21T20:36:37;7.47;;;3.30;;
66856;SDS011;53766;50.280;19.160;2023-02-21T20:39:14;8.20;;;3.20;;
66856;SDS011;53766;50.280;19.160;2023-02-21T20:41:47;8.45;;;3.47;;
66856;SDS011;53766;50.280;19.160;2023-02-21T20:44:16;10.00;;;4.03;;
66856;SDS011;53766;50.280;19.160;2023-02-21T20:46:43;8.20;;;3.30;;
66856;SDS011;53766;50.280;19.160;2023-02-21T20:49:11;6.72;;;3.47;;
66856;SDS011;53766;50.280;19.160;2023-02-21T20:51:40;8.10;;;3.40;;
66856;SDS011;53766;50.280;19.160;2023-02-21T20:54:09;11.73;;;3.67;;
66856;SDS011;53766;50.280;19.160;2023-02-21T20:56:45;9.20;;;3.45;;
66856;SDS011;53766;50.280;19.160;2023-02-21T20:59:17;9.80;;;3.45;;
66856;SDS011;53766;50.280;19.160;2023-02-21T21:01:47;11.15;;;4.50;;
66856;SDS011;53766;50.280;19.160;2023-02-21T21:06:47;9.32;;;3.95;;
66856;SDS011;53766;50.280;19.160;2023-02-21T21:09:15;9.00;;;4.10;;
66856;SDS011;53766;50.280;19.160;2023-02-21T21:11:44;9.88;;;3.85;;
66856;SDS011;53766;50.280;19.160;2023-02-21T21:14:12;9.35;;;4.13;;
66856;SDS011;53766;50.280;19.160;2023-02-21T21:16:43;9.18;;;4.40;;
66856;SDS011;53766;50.280;19.160;2023-02-21T21:19:12;26.17;;;5.22;;
66856;SDS011;53766;50.280;19.160;2023-02-21T21:21:39;15.02;;;5.00;;
66856;SDS011;53766;50.280;19.160;2023-02-21T21:24:07;10.30;;;4.18;;
66856;SDS011;53766;50.280;19.160;2023-02-21T21:26:34;9.25;;;3.95;;
66856;SDS011;53766;50.280;19.160;2023-02-21T21:29:04;11.88;;;5.00;;
66856;SDS011;53766;50.280;19.160;2023-02-21T21:31:34;9.27;;;4.40;;
66856;SDS011;53766;50.280;19.160;2023-02-21T21:34:02;8.43;;;4.28;;
66856;SDS011;53766;50.280;19.160;2023-02-21T21:36:30;9.90;;;4.25;;
66856;SDS011;53766;50.280;19.160;2023-02-21T21:38:57;10.60;;;4.93;;
66856;SDS011;53766;50.280;19.160;2023-02-21T21:41:26;15.00;;;4.90;;
66856;SDS011;53766;50.280;19.160;2023-02-21T21:43:53;9.82;;;4.50;;
66856;SDS011;53766;50.280;19.160;2023-02-21T21:46:20;11.27;;;4.78;;
66856;SDS011;53766;50.280;19.160;2023-02-21T21:48:49;11.75;;;4.60;;
66856;SDS011;53766;50.280;19.160;2023-02-21T21:51:16;10.00;;;4.47;;
66856;SDS011;53766;50.280;19.160;2023-02-21T21:53:44;12.93;;;5.35;;
66856;SDS011;53766;50.280;19.160;2023-02-21T21:56:13;11.68;;;4.85;;
66856;SDS011;53766;50.280;19.160;2023-02-21T21:58:43;14.70;;;4.93;;
66856;SDS011;53766;50.280;19.160;2023-02-21T22:01:11;13.63;;;5.03;;
66856;SDS011;53766;50.280;19.160;2023-02-21T22:03:41;10.93;;;5.32;;
66856;SDS011;53766;50.280;19.160;2023-02-21T22:06:08;10.80;;;5.20;;
66856;SDS011;53766;50.280;19.160;2023-02-21T22:08:37;13.32;;;5.18;;
66856;SDS011;53766;50.280;19.160;2023-02-21T22:11:04;9.93;;;4.80;;
66856;SDS011;53766;50.280;19.160;2023-02-21T22:13:35;12.95;;;5.40;;
66856;SDS011;53766;50.280;19.160;2023-02-21T22:16:03;10.70;;;5.30;;
66856;SDS011;53766;50.280;19.160;2023-02-21T22:18:31;13.40;;;4.88;;
66856;SDS011;53766;50.280;19.160;2023-02-21T22:20:58;11.55;;;5.20;;
66856;SDS011;53766;50.280;19.160;2023-02-21T22:23:25;13.85;;;5.20;;
66856;SDS011;53766;50.280;19.160;2023-02-21T22:25:53;11.65;;;5.35;;
66856;SDS011;53766;50.280;19.160;2023-02-21T22:28:23;13.13;;;5.45;;
66856;SDS011;53766;50.280;19.160;2023-02-21T22:30:50;10.63;;;5.63;;
66856;SDS011;53766;50.280;19.160;2023-02-21T22:33:18;12.52;;;5.43;;
66856;SDS011;53766;50.280;19.160;2023-02-21T22:35:47;15.40;;;5.60;;
66856;SDS011;53766;50.280;19.160;2023-02-21T22:38:15;11.00;;;5.40;;
66856;SDS011;53766;50.280;19.160;2023-02-21T22:40:43;12.63;;;6.05;;
66856;SDS011;53766;50.280;19.160;2023-02-21T22:43:12;9.45;;;5.18;;
66856;SDS011;53766;50.280;19.160;2023-02-21T22:45:40;14.52;;;5.90;;
66856;SDS011;53766;50.280;19.160;2023-02-21T22:48:14;12.15;;;5.45;;
66856;SDS011;53766;50.280;19.160;2023-02-21T22:50:45;13.48;;;5.68;;
66856;SDS011;53766;50.280;19.160;2023-02-21T22:53:13;15.07;;;5.82;;
66856;SDS011;53766;50.280;19.160;2023-02-21T22:55:44;11.50;;;5.32;;
66856;SDS011;53766;50.280;19.160;2023-02-21T22:58:18;12.85;;;5.60;;
66856;SDS011;53766;50.280;19.160;2023-02-21T23:00:46;12.80;;;5.55;;
66856;SDS011;53766;50.280;19.160;2023-02-21T23:03:15;14.02;;;5.57;;
66856;SDS011;53766;50.280;19.160;2023-02-21T23:05:44;12.88;;;5.68;;
66856;SDS011;53766;50.280;19.160;2023-02-21T23:08:19;11.23;;;5.80;;
66856;SDS011;53766;50.280;19.160;2023-02-21T23:10:48;10.70;;;5.00;;
66856;SDS011;53766;50.280;19.160;2023-02-21T23:13:18;11.50;;;5.05;;
66856;SDS011;53766;50.280;19.160;2023-02-21T23:15:47;13.35;;;5.57;;
66856;SDS011;53766;50.280;19.160;2023-02-21T23:18:16;10.80;;;4.85;;
66856;SDS011;53766;50.280;19.160;2023-02-21T23:20:51;11.80;;;5.22;;
66856;SDS011;53766;50.280;19.160;2023-02-21T23:23:21;12.10;;;5.32;;
66856;SDS011;53766;50.280;19.160;2023-02-21T23:25:54;13.40;;;6.00;;
66856;SDS011;53766;50.280;19.160;2023-02-21T23:28:26;11.73;;;5.57;;
66856;SDS011;53766;50.280;19.160;2023-02-21T23:30:55;11.70;;;5.47;;
66856;SDS011;53766;50.280;19.160;2023-02-21T23:33:25;13.18;;;5.50;;
66856;SDS011;53766;50.280;19.160;2023-02-21T23:35:55;12.52;;;5.63;;
66856;SDS011;53766;50.280;19.160;2023-02-21T23:38:23;12.35;;;5.72;;
66856;SDS011;53766;50.280;19.160;2023-02-21T23:40:54;10.75;;;5.63;;
66856;SDS011;53766;50.280;19.160;2023-02-21T23:43:25;11.23;;;5.97;;
66856;SDS011;53766;50.280;19.160;2023-02-21T23:45:56;12.88;;;5.50;;
66856;SDS011;53766;50.280;19.160;2023-02-21T23:48:24;12.40;;;5.88;;
66856;SDS011;53766;50.280;19.160;2023-02-21T23:50:52;12.77;;;5.72;;
66856;SDS011;53766;50.280;19.160;2023-02-21T23:53:24;11.30;;;6.07;;
66856;SDS011;53766;50.280;19.160;2023-02-21T23:55:54;10.88;;;5.47;;
66856;SDS011;53766;50.280;19.160;2023-02-21T23:58:24;12.20;;;5.60;;
